createdAt,value
2018-09-06T00:00:34.377Z,100380.31
2018-09-06T00:01:40.517Z,100385.80
2018-09-06T00:02:47.397Z,100386.41
2018-09-06T00:03:53.963Z,100382.85
2018-09-06T00:05:00.538Z,100380.43
2018-09-06T00:06:07.115Z,100380.39
2018-09-06T00:07:12.669Z,100381.25
2018-09-06T00:08:19.402Z,100378.94
2018-09-06T00:09:25.954Z,100382.58
2018-09-06T00:10:32.443Z,100380.51
2018-09-06T00:11:38.830Z,100382.47
2018-09-06T00:12:45.241Z,100376.66
2018-09-06T00:13:52.150Z,100378.41
2018-09-06T00:14:59.399Z,100382.36
2018-09-06T00:16:05.918Z,100381.47
2018-09-06T00:17:12.066Z,100373.63
2018-09-06T00:18:18.568Z,100378.15
2018-09-06T00:19:25.295Z,100379.00
2018-09-06T00:20:32.281Z,100379.69
2018-09-06T00:21:38.658Z,100378.26
2018-09-06T00:22:44.832Z,100378.75
2018-09-06T00:23:50.897Z,100380.25
2018-09-06T00:24:57.243Z,100375.86
2018-09-06T00:26:03.661Z,100383.17
2018-09-06T00:27:10.385Z,100377.45
2018-09-06T00:28:17.008Z,100379.99
2018-09-06T00:29:23.030Z,100380.82
2018-09-06T00:30:29.436Z,100378.86
2018-09-06T00:31:38.317Z,100379.83
2018-09-06T00:32:44.729Z,100381.78
2018-09-06T00:33:51.021Z,100375.84
2018-09-06T00:34:57.333Z,100376.55
2018-09-06T00:36:04.076Z,100380.68
2018-09-06T00:37:10.893Z,100372.13
2018-09-06T00:38:17.286Z,100376.02
2018-09-06T00:39:23.653Z,100376.22
2018-09-06T00:40:30.670Z,100378.06
2018-09-06T00:41:37.129Z,100374.82
2018-09-06T00:42:44.106Z,100374.86
2018-09-06T00:43:50.544Z,100381.40
2018-09-06T00:44:56.923Z,100381.48
2018-09-06T00:46:02.777Z,100380.28
2018-09-06T00:47:09.444Z,100377.50
2018-09-06T00:48:15.632Z,100382.81
2018-09-06T00:49:22.059Z,100378.42
2018-09-06T00:50:28.120Z,100377.06
2018-09-06T00:51:34.792Z,100377.37
2018-09-06T00:52:41.310Z,100382.00
2018-09-06T00:53:47.737Z,100376.22
2018-09-06T00:54:53.755Z,100378.80
2018-09-06T00:56:00.453Z,100377.40
2018-09-06T00:57:06.131Z,100377.30
2018-09-06T00:58:12.558Z,100378.16
2018-09-06T00:59:18.752Z,100374.33
2018-09-06T01:00:24.874Z,100375.47
2018-09-06T01:01:29.355Z,100380.70
2018-09-06T01:02:34.638Z,100372.44
2018-09-06T01:03:41.991Z,100376.16
2018-09-06T01:04:47.980Z,100372.02
2018-09-06T01:05:54.764Z,100372.95
2018-09-06T01:07:01.211Z,100363.69
2018-09-06T01:08:08.516Z,100362.26
2018-09-06T01:09:14.659Z,100368.11
2018-09-06T01:10:20.894Z,100356.34
2018-09-06T01:11:27.385Z,100366.27
2018-09-06T01:12:33.676Z,100363.79
2018-09-06T01:13:39.706Z,100362.65
2018-09-06T01:14:46.084Z,100360.23
2018-09-06T01:15:52.191Z,100363.48
2018-09-06T01:16:58.518Z,100360.94
2018-09-06T01:18:04.970Z,100358.34
2018-09-06T01:19:11.339Z,100360.05
2018-09-06T01:20:17.491Z,100352.50
2018-09-06T01:21:23.660Z,100353.19
2018-09-06T01:22:30.103Z,100351.20
2018-09-06T01:23:36.188Z,100345.53
2018-09-06T01:24:42.571Z,100347.02
2018-09-06T01:25:49.749Z,100338.48
2018-09-06T01:26:56.013Z,100344.30
2018-09-06T01:28:02.328Z,100346.52
2018-09-06T01:29:08.627Z,100345.37
2018-09-06T01:30:15.079Z,100338.39
2018-09-06T01:31:22.015Z,100334.05
2018-09-06T01:32:27.873Z,100339.61
2018-09-06T01:33:33.435Z,100338.75
2018-09-06T01:34:39.734Z,100343.94
2018-09-06T01:35:46.004Z,100337.35
2018-09-06T01:36:52.459Z,100338.39
2018-09-06T01:37:59.060Z,100339.77
2018-09-06T01:39:04.981Z,100340.02
2018-09-06T01:40:11.252Z,100333.53
2018-09-06T01:41:17.697Z,100331.87
2018-09-06T01:42:24.105Z,100337.92
2018-09-06T01:43:31.421Z,100334.92
2018-09-06T01:44:37.084Z,100336.04
2018-09-06T01:45:42.940Z,100334.53
2018-09-06T01:46:49.076Z,100333.04
2018-09-06T01:47:55.761Z,100335.23
2018-09-06T01:49:02.048Z,100333.94
2018-09-06T01:50:07.773Z,100337.06
2018-09-06T01:51:14.621Z,100331.53
2018-09-06T01:52:21.424Z,100333.62
2018-09-06T01:53:27.842Z,100329.91
2018-09-06T01:54:34.376Z,100333.33
2018-09-06T01:55:40.891Z,100324.72
2018-09-06T01:56:48.598Z,100327.19
2018-09-06T01:57:55.154Z,100323.20
2018-09-06T01:59:01.491Z,100327.55
2018-09-06T02:00:07.369Z,100325.20
2018-09-06T02:01:13.796Z,100328.44
2018-09-06T02:02:20.405Z,100327.01
2018-09-06T02:03:26.471Z,100327.06
2018-09-06T02:04:32.923Z,100325.05
2018-09-06T02:05:39.128Z,100328.50
2018-09-06T02:06:45.649Z,100319.28
2018-09-06T02:07:51.761Z,100322.28
2018-09-06T02:08:57.897Z,100317.42
2018-09-06T02:10:03.669Z,100316.84
2018-09-06T02:11:09.772Z,100320.60
2018-09-06T02:12:15.979Z,100322.78
2018-09-06T02:13:22.180Z,100317.30
2018-09-06T02:14:28.591Z,100316.33
2018-09-06T02:15:35.403Z,100318.30
2018-09-06T02:16:41.736Z,100311.76
2018-09-06T02:17:48.417Z,100314.39
2018-09-06T02:18:55.285Z,100314.45
2018-09-06T02:20:01.565Z,100311.27
2018-09-06T02:21:07.584Z,100305.17
2018-09-06T02:22:14.003Z,100300.47
2018-09-06T02:23:20.418Z,100306.81
2018-09-06T02:24:26.620Z,100310.05
2018-09-06T02:25:33.496Z,100300.66
2018-09-06T02:26:39.889Z,100308.66
2018-09-06T02:27:46.274Z,100307.39
2018-09-06T02:28:52.677Z,100299.61
2018-09-06T02:29:59.096Z,100302.10
2018-09-06T02:31:06.030Z,100300.21
2018-09-06T02:32:12.416Z,100299.36
2018-09-06T02:33:18.871Z,100302.27
2018-09-06T02:34:25.669Z,100295.89
2018-09-06T02:35:32.106Z,100298.77
2018-09-06T02:36:38.871Z,100303.01
2018-09-06T02:37:45.528Z,100298.69
2018-09-06T02:38:51.973Z,100299.84
2018-09-06T02:39:58.676Z,100296.79
2018-09-06T02:41:05.132Z,100288.06
2018-09-06T02:42:11.625Z,100290.63
2018-09-06T02:43:18.346Z,100287.63
2018-09-06T02:44:24.899Z,100287.97
2018-09-06T02:45:31.274Z,100288.59
2018-09-06T02:46:37.500Z,100283.08
2018-09-06T02:47:43.599Z,100286.55
2018-09-06T02:48:49.791Z,100282.38
2018-09-06T02:49:56.579Z,100278.32
2018-09-06T02:51:19.827Z,100284.55
2018-09-06T02:52:26.003Z,100278.39
2018-09-06T02:53:32.502Z,100285.61
2018-09-06T02:54:39.171Z,100280.58
2018-09-06T02:55:45.220Z,100278.51
2018-09-06T02:56:51.701Z,100279.27
2018-09-06T02:57:57.900Z,100280.02
2018-09-06T02:59:03.931Z,100275.94
2018-09-06T03:00:10.424Z,100274.31
2018-09-06T03:01:16.513Z,100276.05
2018-09-06T03:02:22.203Z,100275.63
2018-09-06T03:03:29.290Z,100277.41
2018-09-06T03:04:35.683Z,100270.28
2018-09-06T03:05:42.187Z,100269.33
2018-09-06T03:06:48.918Z,100273.80
2018-09-06T03:07:55.735Z,100270.39
2018-09-06T03:09:02.145Z,100263.80
2018-09-06T03:10:08.120Z,100268.67
2018-09-06T03:11:14.430Z,100268.32
2018-09-06T03:12:20.716Z,100269.34
2018-09-06T03:13:27.292Z,100273.27
2018-09-06T03:14:33.672Z,100272.81
2018-09-06T03:15:40.268Z,100271.62
2018-09-06T03:16:46.743Z,100272.47
2018-09-06T03:17:52.893Z,100275.69
2018-09-06T03:18:59.178Z,100267.92
2018-09-06T03:20:05.007Z,100264.08
2018-09-06T03:21:11.680Z,100266.45
2018-09-06T03:22:17.924Z,100266.35
2018-09-06T03:23:24.612Z,100266.90
2018-09-06T03:24:30.923Z,100269.38
2018-09-06T03:25:36.692Z,100265.86
2018-09-06T03:26:42.829Z,100268.47
2018-09-06T03:27:49.246Z,100268.02
2018-09-06T03:28:55.843Z,100267.96
2018-09-06T03:30:02.244Z,100270.00
2018-09-06T03:31:08.591Z,100269.86
2018-09-06T03:32:14.895Z,100262.48
2018-09-06T03:33:21.161Z,100266.09
2018-09-06T03:34:27.481Z,100261.66
2018-09-06T03:35:34.044Z,100271.02
2018-09-06T03:36:40.385Z,100269.88
2018-09-06T03:37:46.550Z,100265.39
2018-09-06T03:38:52.616Z,100269.63
2018-09-06T03:39:59.091Z,100263.95
2018-09-06T03:41:06.136Z,100267.77
2018-09-06T03:42:12.515Z,100268.67
2018-09-06T03:43:18.753Z,100265.39
2018-09-06T03:44:25.633Z,100264.81
2018-09-06T03:45:32.798Z,100264.44
2018-09-06T03:46:39.519Z,100265.39
2018-09-06T03:47:46.234Z,100263.38
2018-09-06T03:48:52.683Z,100260.69
2018-09-06T03:49:59.380Z,100265.89
2018-09-06T03:51:05.933Z,100271.13
2018-09-06T03:52:12.186Z,100265.56
2018-09-06T03:53:18.598Z,100263.91
2018-09-06T03:54:25.266Z,100273.17
2018-09-06T03:55:31.624Z,100271.24
2018-09-06T03:56:38.042Z,100269.16
2018-09-06T03:57:44.919Z,100268.44
2018-09-06T03:58:51.601Z,100268.23
2018-09-06T03:59:57.839Z,100266.56
2018-09-06T04:01:04.341Z,100261.13
2018-09-06T04:02:10.937Z,100265.39
2018-09-06T04:03:17.340Z,100262.75
2018-09-06T04:04:23.796Z,100267.49
2018-09-06T04:05:30.210Z,100269.73
2018-09-06T04:06:36.630Z,100261.34
2018-09-06T04:07:43.041Z,100266.94
2018-09-06T04:08:49.672Z,100261.88
2018-09-06T04:09:55.976Z,100261.05
2018-09-06T04:11:02.590Z,100266.12
2018-09-06T04:12:09.233Z,100266.45
2018-09-06T04:13:15.606Z,100265.76
2018-09-06T04:14:21.891Z,100259.81
2018-09-06T04:15:28.318Z,100262.54
2018-09-06T04:16:35.100Z,100264.19
2018-09-06T04:17:41.552Z,100255.72
2018-09-06T04:18:47.904Z,100256.35
2018-09-06T04:19:54.717Z,100265.76
2018-09-06T04:21:01.004Z,100255.66
2018-09-06T04:22:07.338Z,100256.16
2018-09-06T04:23:13.528Z,100254.30
2018-09-06T04:24:20.429Z,100255.40
2018-09-06T04:25:27.066Z,100259.09
2018-09-06T04:26:33.492Z,100260.96
2018-09-06T04:27:40.024Z,100260.44
2018-09-06T04:28:46.411Z,100260.31
2018-09-06T04:29:52.954Z,100260.94
2018-09-06T04:30:59.370Z,100255.48
2018-09-06T04:32:06.275Z,100258.36
2018-09-06T04:33:13.171Z,100252.34
2018-09-06T04:34:19.634Z,100256.79
2018-09-06T04:35:26.041Z,100260.11
2018-09-06T04:36:33.384Z,100255.74
2018-09-06T04:37:40.027Z,100261.50
2018-09-06T04:38:46.237Z,100261.98
2018-09-06T04:39:52.560Z,100260.34
2018-09-06T04:40:59.559Z,100259.33
2018-09-06T04:42:05.968Z,100253.50
2018-09-06T04:43:12.459Z,100259.06
2018-09-06T04:44:18.627Z,100258.77
2018-09-06T04:45:25.519Z,100256.56
2018-09-06T04:46:32.233Z,100257.72
2018-09-06T04:47:38.480Z,100252.68
2018-09-06T04:48:45.594Z,100256.44
2018-09-06T04:49:52.069Z,100249.86
2018-09-06T04:50:58.408Z,100252.75
2018-09-06T04:52:04.716Z,100254.89
2018-09-06T04:53:11.160Z,100253.44
2018-09-06T04:54:17.650Z,100255.12
2018-09-06T04:55:24.321Z,100255.77
2018-09-06T04:56:31.411Z,100256.19
2018-09-06T04:57:38.203Z,100258.92
2018-09-06T04:58:44.510Z,100257.70
2018-09-06T04:59:50.921Z,100258.56
2018-09-06T05:00:57.377Z,100261.00
2018-09-06T05:02:03.757Z,100251.78
2018-09-06T05:03:10.226Z,100249.19
2018-09-06T05:04:16.613Z,100248.06
2018-09-06T05:05:23.222Z,100255.98
2018-09-06T05:06:29.538Z,100254.73
2018-09-06T05:07:35.952Z,100253.46
2018-09-06T05:08:42.843Z,100255.97
2018-09-06T05:09:49.301Z,100256.72
2018-09-06T05:10:56.218Z,100253.30
2018-09-06T05:12:02.606Z,100256.91
2018-09-06T05:13:09.048Z,100259.94
2018-09-06T05:14:15.484Z,100259.77
2018-09-06T05:15:21.411Z,100258.80
2018-09-06T05:16:27.855Z,100259.22
2018-09-06T05:17:34.186Z,100254.83
2018-09-06T05:18:40.601Z,100254.66
2018-09-06T05:19:47.107Z,100257.73
2018-09-06T05:20:53.276Z,100250.33
2018-09-06T05:21:59.839Z,100260.24
2018-09-06T05:23:06.469Z,100259.39
2018-09-06T05:24:12.846Z,100254.91
2018-09-06T05:25:18.934Z,100254.16
2018-09-06T05:26:25.387Z,100252.74
2018-09-06T05:27:31.789Z,100253.00
2018-09-06T05:28:38.239Z,100255.81
2018-09-06T05:29:44.617Z,100256.47
2018-09-06T05:30:50.978Z,100254.16
2018-09-06T05:31:57.578Z,100252.31
2018-09-06T05:33:03.980Z,100255.41
2018-09-06T05:34:10.363Z,100251.03
2018-09-06T05:35:16.845Z,100258.89
2018-09-06T05:36:23.472Z,100255.66
2018-09-06T05:37:30.030Z,100258.13
2018-09-06T05:38:36.464Z,100258.41
2018-09-06T05:39:42.794Z,100253.44
2018-09-06T05:40:49.183Z,100249.70
2018-09-06T05:41:55.596Z,100251.70
2018-09-06T05:43:02.038Z,100250.17
2018-09-06T05:44:08.318Z,100252.20
2018-09-06T05:45:14.627Z,100248.03
2018-09-06T05:46:20.809Z,100244.80
2018-09-06T05:47:27.484Z,100248.53
2018-09-06T05:48:33.881Z,100248.78
2018-09-06T05:49:40.247Z,100245.80
2018-09-06T05:50:46.599Z,100246.05
2018-09-06T05:51:52.935Z,100246.30
2018-09-06T05:52:59.352Z,100246.19
2018-09-06T05:54:05.600Z,100242.41
2018-09-06T05:55:11.939Z,100239.66
2018-09-06T05:56:18.339Z,100241.69
2018-09-06T05:57:26.992Z,100240.79
2018-09-06T05:58:33.008Z,100240.50
2018-09-06T05:59:39.337Z,100239.63
2018-09-06T06:00:45.634Z,100239.47
2018-09-06T06:01:51.788Z,100241.05
2018-09-06T06:02:57.883Z,100243.89
2018-09-06T06:04:04.276Z,100241.92
2018-09-06T06:05:10.760Z,100242.75
2018-09-06T06:06:17.413Z,100243.62
2018-09-06T06:07:23.165Z,100246.55
2018-09-06T06:08:37.873Z,100250.19
2018-09-06T06:09:44.146Z,100252.43
2018-09-06T06:10:50.213Z,100246.62
2018-09-06T06:11:56.752Z,100248.95
2018-09-06T06:13:03.302Z,100241.55
2018-09-06T06:14:09.697Z,100242.36
2018-09-06T06:15:15.808Z,100242.77
2018-09-06T06:16:22.200Z,100242.66
2018-09-06T06:17:28.308Z,100240.80
2018-09-06T06:18:34.685Z,100235.72
2018-09-06T06:19:40.864Z,100231.88
2018-09-06T06:20:46.927Z,100238.86
2018-09-06T06:21:53.391Z,100237.70
2018-09-06T06:22:59.777Z,100239.84
2018-09-06T06:24:05.493Z,100240.60
2018-09-06T06:25:11.641Z,100242.23
2018-09-06T06:26:18.123Z,100236.55
2018-09-06T06:27:24.540Z,100235.27
2018-09-06T06:28:30.965Z,100237.47
2018-09-06T06:29:37.133Z,100232.58
2018-09-06T06:30:43.231Z,100232.17
2018-09-06T06:31:49.556Z,100233.09
2018-09-06T06:32:55.522Z,100227.89
2018-09-06T06:34:02.021Z,100225.00
2018-09-06T06:35:08.701Z,100227.75
2018-09-06T06:36:15.007Z,100226.22
2018-09-06T06:37:21.370Z,100227.61
2018-09-06T06:38:27.396Z,100219.34
2018-09-06T06:39:33.853Z,100222.12
2018-09-06T06:40:40.172Z,100226.55
2018-09-06T06:41:46.469Z,100219.39
2018-09-06T06:42:52.784Z,100216.16
2018-09-06T06:43:59.125Z,100212.59
2018-09-06T06:45:04.505Z,100219.56
2018-09-06T06:46:11.011Z,100208.63
2018-09-06T06:47:17.416Z,100210.94
2018-09-06T06:48:23.759Z,100214.73
2018-09-06T06:49:30.167Z,100208.84
2018-09-06T06:50:36.340Z,100206.41
2018-09-06T06:51:42.791Z,100209.48
2018-09-06T06:52:49.174Z,100208.84
2018-09-06T06:53:55.382Z,100207.42
2018-09-06T06:55:01.839Z,100209.27
2018-09-06T06:56:08.407Z,100213.28
2018-09-06T06:57:14.739Z,100215.27
2018-09-06T06:58:21.174Z,100209.02
2018-09-06T06:59:27.557Z,100204.69
2018-09-06T07:00:33.777Z,100208.31
2018-09-06T07:01:40.092Z,100210.72
2018-09-06T07:02:46.382Z,100205.16
2018-09-06T07:03:52.499Z,100203.58
2018-09-06T07:04:58.913Z,100206.26
2018-09-06T07:06:05.333Z,100202.51
2018-09-06T07:07:11.702Z,100205.31
2018-09-06T07:08:18.256Z,100203.29
2018-09-06T07:09:24.688Z,100210.74
2018-09-06T07:10:31.010Z,100205.75
2018-09-06T07:11:37.282Z,100206.02
2018-09-06T07:12:43.882Z,100199.02
2018-09-06T07:13:50.351Z,100209.81
2018-09-06T07:14:56.653Z,100206.52
2018-09-06T07:16:03.273Z,100203.67
2018-09-06T07:17:09.672Z,100204.58
2018-09-06T07:18:15.935Z,100204.98
2018-09-06T07:19:22.412Z,100200.58
2018-09-06T07:20:28.733Z,100205.17
2018-09-06T07:21:34.815Z,100206.39
2018-09-06T07:22:41.276Z,100205.77
2018-09-06T07:23:47.673Z,100202.45
2018-09-06T07:24:53.986Z,100201.79
2018-09-06T07:26:00.282Z,100201.12
2018-09-06T07:27:06.335Z,100202.09
2018-09-06T07:28:12.745Z,100202.41
2018-09-06T07:29:18.954Z,100196.70
2018-09-06T07:30:25.388Z,100202.52
2018-09-06T07:31:31.938Z,100203.90
2018-09-06T07:32:38.320Z,100203.61
2018-09-06T07:33:44.757Z,100198.53
2018-09-06T07:34:51.069Z,100201.14
2018-09-06T07:35:57.490Z,100199.02
2018-09-06T07:37:04.408Z,100198.50
2018-09-06T07:38:10.822Z,100195.48
2018-09-06T07:39:17.256Z,100198.21
2018-09-06T07:40:23.582Z,100193.02
2018-09-06T07:41:29.571Z,100194.31
2018-09-06T07:42:36.197Z,100196.77
2018-09-06T07:43:42.613Z,100192.89
2018-09-06T07:44:48.926Z,100193.70
2018-09-06T07:45:55.222Z,100192.38
2018-09-06T07:47:01.540Z,100194.94
2018-09-06T07:48:07.840Z,100193.83
2018-09-06T07:49:14.305Z,100190.27
2018-09-06T07:50:20.708Z,100187.82
2018-09-06T07:51:27.165Z,100184.52
2018-09-06T07:52:33.700Z,100186.92
2018-09-06T07:53:40.076Z,100187.89
2018-09-06T07:54:46.531Z,100188.17
2018-09-06T07:55:52.849Z,100189.24
2018-09-06T07:56:59.263Z,100191.92
2018-09-06T07:58:05.352Z,100187.63
2018-09-06T07:59:11.451Z,100192.80
2018-09-06T08:00:18.093Z,100189.45
2018-09-06T08:01:24.510Z,100184.08
2018-09-06T08:02:30.928Z,100181.58
2018-09-06T08:03:37.107Z,100184.30
2018-09-06T08:04:43.691Z,100182.05
2018-09-06T08:05:49.997Z,100182.67
2018-09-06T08:06:55.944Z,100184.08
2018-09-06T08:08:02.413Z,100178.33
2018-09-06T08:09:08.689Z,100177.20
2018-09-06T08:10:14.887Z,100177.34
2018-09-06T08:11:21.888Z,100175.91
2018-09-06T08:12:28.146Z,100174.55
2018-09-06T08:13:34.453Z,100176.45
2018-09-06T08:14:41.575Z,100177.92
2018-09-06T08:15:48.001Z,100178.55
2018-09-06T08:16:54.857Z,100172.11
2018-09-06T08:18:01.228Z,100178.44
2018-09-06T08:19:07.326Z,100167.48
2018-09-06T08:20:13.562Z,100174.38
2018-09-06T08:21:20.008Z,100175.72
2018-09-06T08:22:26.432Z,100172.08
2018-09-06T08:23:32.100Z,100176.67
2018-09-06T08:24:39.252Z,100169.63
2018-09-06T08:25:45.637Z,100173.98
2018-09-06T08:26:51.787Z,100176.41
2018-09-06T08:27:58.248Z,100175.27
2018-09-06T08:29:03.987Z,100174.59
2018-09-06T08:30:09.974Z,100172.84
2018-09-06T08:31:16.434Z,100173.78
2018-09-06T08:32:22.804Z,100174.30
2018-09-06T08:33:29.136Z,100172.08
2018-09-06T08:34:35.544Z,100171.51
2018-09-06T08:35:41.941Z,100170.22
2018-09-06T08:36:48.359Z,100168.06
2018-09-06T08:37:54.683Z,100160.67
2018-09-06T08:39:01.074Z,100167.36
2018-09-06T08:40:07.003Z,100165.33
2018-09-06T08:41:13.428Z,100170.37
2018-09-06T08:42:19.442Z,100163.63
2018-09-06T08:43:25.528Z,100168.47
2018-09-06T08:44:31.938Z,100161.90
2018-09-06T08:45:38.355Z,100165.06
2018-09-06T08:46:44.632Z,100165.00
2018-09-06T08:47:50.722Z,100170.34
2018-09-06T08:48:56.702Z,100161.64
2018-09-06T08:50:03.204Z,100160.66
2018-09-06T08:51:09.285Z,100165.63
2018-09-06T08:52:15.880Z,100164.22
2018-09-06T08:53:22.154Z,100165.06
2018-09-06T08:54:28.651Z,100166.53
2018-09-06T08:55:34.817Z,100163.53
2018-09-06T08:56:41.141Z,100156.70
2018-09-06T08:57:47.969Z,100166.40
2018-09-06T08:58:54.379Z,100159.88
2018-09-06T09:00:00.159Z,100158.25
2018-09-06T09:01:06.892Z,100158.14
2018-09-06T09:02:12.900Z,100155.86
2018-09-06T09:03:19.491Z,100152.36
2018-09-06T09:04:26.074Z,100155.16
2018-09-06T09:05:32.180Z,100150.10
2018-09-06T09:06:38.289Z,100154.91
2018-09-06T09:07:44.800Z,100145.48
2018-09-06T09:08:51.223Z,100150.83
2018-09-06T09:09:57.709Z,100147.48
2018-09-06T09:11:04.839Z,100143.75
2018-09-06T09:12:11.282Z,100144.14
2018-09-06T09:13:17.406Z,100143.02
2018-09-06T09:14:23.981Z,100145.81
2018-09-06T09:15:30.424Z,100138.27
2018-09-06T09:16:35.897Z,100141.28
2018-09-06T09:17:42.000Z,100145.30
2018-09-06T09:18:48.409Z,100139.80
2018-09-06T09:19:54.824Z,100138.66
2018-09-06T09:21:01.263Z,100139.30
2018-09-06T09:22:07.726Z,100137.48
2018-09-06T09:23:13.895Z,100135.61
2018-09-06T09:24:20.020Z,100143.27
2018-09-06T09:25:26.071Z,100139.88
2018-09-06T09:26:32.841Z,100133.42
2018-09-06T09:27:38.639Z,100134.38
2018-09-06T09:28:44.433Z,100130.47
2018-09-06T09:29:50.915Z,100129.58
2018-09-06T09:30:57.288Z,100126.41
2018-09-06T09:32:03.650Z,100128.03
2018-09-06T09:33:09.737Z,100117.17
2018-09-06T09:34:16.147Z,100121.80
2018-09-06T09:35:22.132Z,100120.48
2018-09-06T09:36:27.839Z,100116.70
2018-09-06T09:37:34.006Z,100114.91
2018-09-06T09:38:39.953Z,100117.06
2018-09-06T09:39:46.599Z,100116.81
2018-09-06T09:40:52.642Z,100111.24
2018-09-06T09:41:58.638Z,100111.25
2018-09-06T09:43:05.014Z,100107.39
2018-09-06T09:44:11.334Z,100109.58
2018-09-06T09:45:17.761Z,100109.95
2018-09-06T09:48:33.760Z,100108.36
2018-09-06T09:49:40.224Z,100103.73
2018-09-06T09:51:51.903Z,100102.92
2018-09-06T09:52:58.217Z,100102.33
2018-09-06T09:54:04.185Z,100105.75
2018-09-06T09:55:10.601Z,100101.63
2018-09-06T09:56:16.209Z,100102.09
2018-09-06T09:57:22.574Z,100096.94
2018-09-06T09:58:28.981Z,100103.16
2018-09-06T09:59:35.287Z,100103.27
2018-09-06T10:00:41.643Z,100101.47
2018-09-06T10:01:47.814Z,100100.73
2018-09-06T10:02:53.988Z,100100.59
2018-09-06T10:05:35.264Z,100097.27
2018-09-06T10:06:41.109Z,100091.35
2018-09-06T10:07:53.000Z,100099.05
2018-09-06T10:08:59.233Z,100092.18
2018-09-06T10:10:04.731Z,100082.78
2018-09-06T10:11:10.541Z,100086.20
2018-09-06T10:12:16.752Z,100080.87
2018-09-06T10:13:22.459Z,100087.59
2018-09-06T10:14:28.853Z,100083.20
2018-09-06T10:15:34.707Z,100082.91
2018-09-06T10:16:40.683Z,100084.29
2018-09-06T10:17:46.726Z,100075.10
2018-09-06T10:18:52.657Z,100073.98
2018-09-06T10:19:59.084Z,100075.67
2018-09-06T10:21:05.382Z,100080.61
2018-09-06T10:22:11.410Z,100074.65
2018-09-06T10:23:17.793Z,100071.30
2018-09-06T10:24:23.781Z,100075.98
2018-09-06T10:25:29.773Z,100070.55
2018-09-06T10:26:35.615Z,100072.46
2018-09-06T10:27:41.669Z,100066.42
2018-09-06T10:28:48.012Z,100065.83
2018-09-06T10:29:53.917Z,100064.25
2018-09-06T10:30:59.921Z,100066.12
2018-09-06T10:32:06.223Z,100063.25
2018-09-06T10:33:12.293Z,100058.95
2018-09-06T10:34:18.972Z,100056.66
2018-09-06T10:35:24.239Z,100056.64
2018-09-06T10:36:30.394Z,100053.67
2018-09-06T10:37:36.510Z,100053.08
2018-09-06T10:38:42.553Z,100050.20
2018-09-06T10:39:48.622Z,100049.66
2018-09-06T10:40:54.908Z,100045.48
2018-09-06T10:42:00.722Z,100041.36
2018-09-06T10:43:06.168Z,100046.12
2018-09-06T10:44:11.897Z,100046.16
2018-09-06T10:45:17.942Z,100043.38
2018-09-06T10:46:23.933Z,100041.68
2018-09-06T10:47:29.725Z,100036.95
2018-09-06T10:48:35.760Z,100042.56
2018-09-06T10:49:40.949Z,100035.72
2018-09-06T10:50:47.159Z,100034.29
2018-09-06T10:51:52.868Z,100028.75
2018-09-06T10:52:59.729Z,100028.77
2018-09-06T10:54:05.560Z,100022.05
2018-09-06T10:55:12.274Z,100027.63
2018-09-06T10:56:18.135Z,100024.53
2018-09-06T10:57:24.343Z,100026.35
2018-09-06T10:58:29.652Z,100024.63
2018-09-06T10:59:35.028Z,100024.34
2018-09-06T11:00:41.177Z,100020.95
2018-09-06T11:01:47.372Z,100020.59
2018-09-06T11:02:52.881Z,100016.55
2018-09-06T11:03:58.537Z,100017.38
2018-09-06T11:05:04.269Z,100010.34
2018-09-06T11:06:10.406Z,100012.36
2018-09-06T11:07:16.100Z,100015.19
2018-09-06T11:08:21.887Z,100005.36
2018-09-06T11:09:27.536Z,100014.84
2018-09-06T11:10:33.378Z,100008.94
2018-09-06T11:11:39.506Z,100009.91
2018-09-06T11:12:45.539Z,100009.05
2018-09-06T11:13:51.528Z,100000.16
2018-09-06T11:14:57.304Z,99997.81
2018-09-06T11:16:03.395Z,99998.12
2018-09-06T11:17:09.547Z,100001.34
2018-09-06T11:18:15.527Z,100003.53
2018-09-06T11:19:21.609Z,100004.31
2018-09-06T11:20:27.726Z,99996.55
2018-09-06T11:21:34.297Z,99994.30
2018-09-06T11:22:40.709Z,99999.03
2018-09-06T11:23:47.015Z,99993.29
2018-09-06T11:24:53.395Z,99990.66
2018-09-06T11:25:59.191Z,99985.77
2018-09-06T11:27:05.328Z,99987.85
2018-09-06T11:28:11.369Z,99979.57
2018-09-06T11:29:17.435Z,99984.56
2018-09-06T11:30:22.851Z,99978.47
2018-09-06T11:31:28.955Z,99987.28
2018-09-06T11:32:34.619Z,99980.05
2018-09-06T11:33:40.388Z,99980.17
2018-09-06T11:34:46.542Z,99980.88
2018-09-06T11:35:52.648Z,99982.78
2018-09-06T11:36:58.729Z,99985.02
2018-09-06T11:38:04.602Z,99981.30
2018-09-06T11:39:10.805Z,99975.38
2018-09-06T11:40:16.984Z,99976.41
2018-09-06T11:41:22.971Z,99977.53
2018-09-06T11:42:28.877Z,99975.56
2018-09-06T11:43:34.509Z,99982.09
2018-09-06T11:44:40.465Z,99970.02
2018-09-06T11:45:46.629Z,99982.34
2018-09-06T11:46:52.899Z,99975.63
2018-09-06T11:47:58.893Z,99976.44
2018-09-06T11:49:04.529Z,99969.77
2018-09-06T11:50:10.611Z,99970.66
2018-09-06T11:51:16.030Z,99965.05
2018-09-06T11:52:21.581Z,99962.55
2018-09-06T11:53:27.743Z,99955.20
2018-09-06T11:54:33.937Z,99953.34
2018-09-06T11:55:39.441Z,99954.78
2018-09-06T11:56:45.525Z,99948.95
2018-09-06T11:57:51.539Z,99957.13
2018-09-06T11:58:58.316Z,99954.03
2018-09-06T12:00:03.768Z,99955.96
2018-09-06T12:01:09.257Z,99951.19
2018-09-06T12:02:15.309Z,99952.81
2018-09-06T12:03:21.575Z,99958.47
2018-09-06T12:04:26.986Z,99953.45
2018-09-06T12:05:32.920Z,99952.53
2018-09-06T12:06:38.249Z,99953.97
2018-09-06T12:07:43.649Z,99944.48
2018-09-06T12:08:49.404Z,99946.59
2018-09-06T12:09:55.155Z,99947.89
2018-09-06T12:11:00.873Z,99944.31
2018-09-06T12:12:06.926Z,99946.17
2018-09-06T12:13:12.785Z,99942.27
2018-09-06T12:14:18.759Z,99942.25
2018-09-06T12:15:25.327Z,99943.08
2018-09-06T12:16:37.388Z,99944.74
2018-09-06T12:17:43.513Z,99943.30
2018-09-06T12:18:49.221Z,99949.06
2018-09-06T12:19:55.685Z,99941.66
2018-09-06T12:21:01.498Z,99939.27
2018-09-06T12:22:07.651Z,99945.75
2018-09-06T12:23:14.121Z,99941.02
2018-09-06T12:24:19.524Z,99945.34
2018-09-06T12:25:25.721Z,99941.56
2018-09-06T12:26:31.625Z,99939.19
2018-09-06T12:27:37.767Z,99934.72
2018-09-06T12:28:43.560Z,99931.09
2018-09-06T12:29:48.994Z,99937.84
2018-09-06T12:30:54.460Z,99930.84
2018-09-06T12:32:00.632Z,99931.09
2018-09-06T12:33:06.807Z,99926.80
2018-09-06T12:34:12.619Z,99931.60
2018-09-06T12:35:18.429Z,99929.28
2018-09-06T12:36:24.662Z,99921.86
2018-09-06T12:37:29.968Z,99927.13
2018-09-06T12:38:35.738Z,99920.39
2018-09-06T12:39:41.896Z,99925.41
2018-09-06T12:40:47.864Z,99923.16
2018-09-06T12:41:53.421Z,99919.59
2018-09-06T12:42:59.225Z,99918.20
2018-09-06T12:44:04.761Z,99918.33